createdAt,value
2017-07-26T00:01:37.829Z,16.70
2017-07-26T00:04:04.550Z,16.70
2017-07-26T00:06:31.242Z,16.70
2017-07-26T00:08:57.222Z,16.70
2017-07-26T00:11:23.206Z,16.80
2017-07-26T00:13:49.161Z,16.70
2017-07-26T00:16:15.143Z,16.50
2017-07-26T00:18:41.125Z,16.70
2017-07-26T00:21:07.126Z,16.70
2017-07-26T00:23:33.825Z,16.70
2017-07-26T00:25:59.786Z,16.60
2017-07-26T00:28:25.745Z,16.80
2017-07-26T00:30:51.701Z,16.80
2017-07-26T00:33:17.694Z,16.70
2017-07-26T00:35:43.694Z,16.70
2017-07-26T00:38:09.652Z,16.70
2017-07-26T00:40:35.638Z,16.70
2017-07-26T00:43:01.591Z,16.70
2017-07-26T00:45:27.597Z,16.80
2017-07-26T00:47:53.542Z,16.70
2017-07-26T00:50:19.523Z,16.70
2017-07-26T00:52:45.477Z,16.60
2017-07-26T00:55:11.480Z,16.60
2017-07-26T00:57:37.457Z,16.60
2017-07-26T01:00:04.150Z,16.50
2017-07-26T01:02:30.128Z,16.50
2017-07-26T01:04:56.079Z,16.20
2017-07-26T01:07:22.077Z,16.40
2017-07-26T01:09:48.063Z,16.40
2017-07-26T01:12:14.026Z,16.30
2017-07-26T01:14:40.019Z,16.40
2017-07-26T01:17:06.014Z,16.40
2017-07-26T01:19:31.991Z,16.50
2017-07-26T01:21:57.946Z,16.60
2017-07-26T01:24:23.929Z,16.60
2017-07-26T01:26:49.949Z,16.60
2017-07-26T01:29:15.898Z,16.60
2017-07-26T01:31:41.870Z,16.60
2017-07-26T01:34:07.888Z,16.40
2017-07-26T01:36:34.593Z,16.50
2017-07-26T01:39:00.573Z,16.50
2017-07-26T01:41:26.517Z,16.60
2017-07-26T01:43:52.452Z,16.60
2017-07-26T01:46:19.206Z,16.60
2017-07-26T01:48:45.137Z,16.60
2017-07-26T01:51:11.095Z,16.30
2017-07-26T01:53:37.817Z,16.50
2017-07-26T01:56:04.497Z,16.70
2017-07-26T01:58:30.429Z,16.60
2017-07-26T02:00:56.398Z,16.70
2017-07-26T02:03:22.373Z,16.70
2017-07-26T02:05:49.106Z,16.60
2017-07-26T02:08:15.054Z,16.60
2017-07-26T02:10:41.013Z,16.50
2017-07-26T02:13:07.726Z,16.50
2017-07-26T02:15:33.677Z,16.50
2017-07-26T02:17:59.649Z,16.40
2017-07-26T02:20:26.405Z,16.40
2017-07-26T02:22:52.357Z,16.40
2017-07-26T02:25:18.302Z,16.50
2017-07-26T02:27:44.286Z,16.40
2017-07-26T02:30:10.274Z,16.50
2017-07-26T02:32:36.224Z,16.50
2017-07-26T02:35:03.295Z,16.60
2017-07-26T02:37:29.246Z,16.60
2017-07-26T02:39:55.194Z,16.50
2017-07-26T02:42:21.169Z,16.60
2017-07-26T02:44:47.889Z,16.50
2017-07-26T02:47:13.855Z,16.50
2017-07-26T02:49:39.875Z,16.40
2017-07-26T02:52:05.857Z,16.50
2017-07-26T02:54:31.829Z,16.60
2017-07-26T02:56:58.563Z,16.60
2017-07-26T02:59:24.520Z,16.60
2017-07-26T03:01:50.465Z,16.70
2017-07-26T03:04:17.186Z,16.60
2017-07-26T03:06:43.132Z,16.60
2017-07-26T03:09:09.125Z,16.70
2017-07-26T03:11:35.860Z,16.50
2017-07-26T03:14:01.830Z,16.50
2017-07-26T03:16:27.778Z,16.60
2017-07-26T03:18:53.763Z,16.60
2017-07-26T03:21:20.496Z,16.40
2017-07-26T03:23:47.178Z,16.60
2017-07-26T03:26:13.164Z,16.50
2017-07-26T03:28:39.126Z,16.60
2017-07-26T03:31:05.063Z,16.60
2017-07-26T03:33:31.042Z,16.60
2017-07-26T03:35:56.981Z,16.60
2017-07-26T03:38:22.947Z,16.60
2017-07-26T03:40:48.917Z,16.50
2017-07-26T03:43:14.865Z,16.50
2017-07-26T03:45:40.821Z,16.60
2017-07-26T03:48:06.782Z,16.60
2017-07-26T03:50:32.733Z,16.60
2017-07-26T03:52:58.717Z,16.60
2017-07-26T03:55:25.402Z,16.60
2017-07-26T03:57:51.353Z,16.60
2017-07-26T04:00:18.094Z,16.60
2017-07-26T04:02:44.054Z,16.60
2017-07-26T04:05:10.019Z,16.60
2017-07-26T04:07:35.997Z,16.60
2017-07-26T04:10:02.678Z,16.60
2017-07-26T04:12:28.635Z,16.60
2017-07-26T04:14:55.369Z,16.60
2017-07-26T04:17:21.341Z,16.60
2017-07-26T04:19:47.290Z,16.60
2017-07-26T04:22:13.293Z,16.50
2017-07-26T04:24:39.246Z,16.40
2017-07-26T04:27:05.193Z,16.50
2017-07-26T04:29:31.157Z,16.50
2017-07-26T04:31:57.178Z,16.40
2017-07-26T04:34:23.127Z,16.30
2017-07-26T04:36:49.830Z,16.40
2017-07-26T04:39:15.818Z,16.40
2017-07-26T04:41:41.786Z,16.40
2017-07-26T04:44:07.742Z,16.50
2017-07-26T04:46:33.718Z,16.50
2017-07-26T04:48:59.661Z,16.70
2017-07-26T04:51:25.629Z,16.70
2017-07-26T04:53:51.621Z,16.70
2017-07-26T04:56:17.567Z,16.70
2017-07-26T04:58:43.532Z,16.70
2017-07-26T05:01:09.539Z,16.70
2017-07-26T05:03:35.507Z,16.60
2017-07-26T05:06:01.510Z,16.70
2017-07-26T05:08:27.506Z,16.70
2017-07-26T05:10:53.459Z,16.70
2017-07-26T05:13:20.151Z,16.70
2017-07-26T05:15:46.126Z,16.70
2017-07-26T05:18:12.098Z,16.70
2017-07-26T05:20:38.858Z,16.80
2017-07-26T05:23:04.854Z,16.80
2017-07-26T05:25:30.806Z,16.80
2017-07-26T05:27:56.814Z,16.80
2017-07-26T05:30:22.766Z,16.90
2017-07-26T05:32:49.494Z,16.70
2017-07-26T05:35:16.234Z,16.80
2017-07-26T05:37:42.245Z,16.80
2017-07-26T05:40:08.204Z,16.70
2017-07-26T05:42:34.150Z,16.70
2017-07-26T05:45:00.882Z,16.90
2017-07-26T05:47:26.827Z,16.90
2017-07-26T05:49:52.783Z,16.90
2017-07-26T05:52:18.767Z,16.80
2017-07-26T05:54:44.714Z,16.70
2017-07-26T05:57:10.715Z,16.80
2017-07-26T05:59:37.409Z,16.70
2017-07-26T06:02:03.354Z,16.70
2017-07-26T06:04:29.344Z,16.70
2017-07-26T06:06:56.030Z,16.70
2017-07-26T06:09:22.009Z,16.70
2017-07-26T06:11:47.962Z,16.80
2017-07-26T06:14:13.915Z,16.80
2017-07-26T06:16:39.914Z,16.80
2017-07-26T06:19:06.610Z,16.80
2017-07-26T06:21:32.558Z,16.80
2017-07-26T06:23:58.582Z,16.90
2017-07-26T06:26:24.544Z,16.90
2017-07-26T06:28:50.500Z,17.00
2017-07-26T06:31:16.511Z,16.90
2017-07-26T06:33:42.479Z,17.00
2017-07-26T06:36:08.506Z,16.90
2017-07-26T06:38:34.478Z,16.90
2017-07-26T06:41:00.425Z,16.90
2017-07-26T06:43:26.410Z,17.00
2017-07-26T06:45:52.417Z,17.10
2017-07-26T06:48:19.107Z,17.10
2017-07-26T06:50:45.049Z,17.10
2017-07-26T06:53:11.809Z,17.00
2017-07-26T06:55:37.800Z,17.00
2017-07-26T06:58:04.498Z,17.10
2017-07-26T07:00:30.506Z,17.10
2017-07-26T07:02:56.509Z,17.00
2017-07-26T07:05:22.463Z,17.20
2017-07-26T07:07:48.419Z,17.10
2017-07-26T07:10:14.409Z,17.00
2017-07-26T07:12:40.364Z,17.00
2017-07-26T07:15:06.320Z,17.00
2017-07-26T07:17:32.309Z,17.10
2017-07-26T07:19:58.283Z,16.90
2017-07-26T07:22:24.229Z,17.10
2017-07-26T07:24:50.234Z,17.00
2017-07-26T07:27:16.178Z,16.90
2017-07-26T07:29:42.154Z,16.90
2017-07-26T07:32:08.171Z,17.10
2017-07-26T07:34:34.122Z,17.10
2017-07-26T07:37:00.074Z,17.20
2017-07-26T07:39:26.054Z,17.20
2017-07-26T07:41:53.007Z,17.20
2017-07-26T07:44:18.953Z,17.10
2017-07-26T07:46:44.928Z,17.40
2017-07-26T07:49:15.737Z,17.30
2017-07-26T07:51:41.747Z,17.20
2017-07-26T07:54:08.061Z,17.20
2017-07-26T07:56:34.745Z,17.30
2017-07-26T07:59:00.718Z,17.30
2017-07-26T08:01:26.705Z,17.40
2017-07-26T08:03:52.669Z,17.40
2017-07-26T08:06:18.616Z,17.40
2017-07-26T08:08:45.332Z,17.70
2017-07-26T08:11:11.319Z,17.70
2017-07-26T08:13:37.266Z,17.70
2017-07-26T08:16:03.253Z,17.70
2017-07-26T08:18:29.985Z,17.90
2017-07-26T08:20:56.672Z,17.80
2017-07-26T08:23:22.608Z,17.80
2017-07-26T08:25:48.589Z,17.80
2017-07-26T08:28:14.529Z,17.80
2017-07-26T08:30:40.776Z,17.80
2017-07-26T08:33:06.716Z,17.80
2017-07-26T08:35:32.666Z,17.70
2017-07-26T08:37:58.637Z,17.90
2017-07-26T08:40:24.617Z,17.80
2017-07-26T08:42:50.568Z,17.90
2017-07-26T08:45:16.541Z,18.10
2017-07-26T08:47:42.502Z,18.20
2017-07-26T08:50:09.282Z,18.10
2017-07-26T08:52:35.233Z,18.10
2017-07-26T08:55:01.921Z,18.40
2017-07-26T08:57:27.906Z,18.40
2017-07-26T08:59:53.898Z,18.50
2017-07-26T09:02:19.837Z,18.40
2017-07-26T09:04:45.793Z,18.50
2017-07-26T09:07:11.826Z,18.40
2017-07-26T09:09:37.785Z,18.30
2017-07-26T09:12:03.724Z,18.40
2017-07-26T09:14:30.444Z,18.70
2017-07-26T09:16:57.168Z,18.50
2017-07-26T09:19:23.849Z,18.70
2017-07-26T09:21:49.817Z,18.70
2017-07-26T09:24:15.821Z,18.50
2017-07-26T09:26:42.512Z,18.50
2017-07-26T09:29:08.473Z,18.50
2017-07-26T09:31:34.461Z,18.50
2017-07-26T09:34:01.146Z,18.60
2017-07-26T09:36:27.089Z,18.60
2017-07-26T09:38:53.818Z,18.70
2017-07-26T09:41:20.541Z,19.00
2017-07-26T09:43:47.224Z,19.00
2017-07-26T09:46:13.213Z,19.00
2017-07-26T09:48:39.175Z,19.00
2017-07-26T09:51:05.866Z,18.90
2017-07-26T09:53:31.885Z,18.90
2017-07-26T09:55:57.824Z,18.90
2017-07-26T09:58:24.509Z,18.90
2017-07-26T10:00:50.502Z,18.90
2017-07-26T10:03:16.450Z,18.70
2017-07-26T10:05:42.429Z,18.60
2017-07-26T10:08:08.376Z,18.60
2017-07-26T10:10:35.087Z,18.60
2017-07-26T10:13:01.024Z,18.50
2017-07-26T10:15:27.012Z,18.50
2017-07-26T10:17:52.962Z,18.60
2017-07-26T10:20:18.940Z,18.50
2017-07-26T10:22:45.698Z,19.00
2017-07-26T10:25:11.662Z,18.90
2017-07-26T10:27:37.629Z,19.00
2017-07-26T10:30:03.613Z,19.00
2017-07-26T10:32:29.562Z,18.90
2017-07-26T10:34:55.549Z,19.00
2017-07-26T10:37:21.488Z,18.80
2017-07-26T10:39:47.436Z,18.90
2017-07-26T10:42:13.437Z,19.00
2017-07-26T10:44:39.403Z,19.20
2017-07-26T10:47:05.347Z,19.10
2017-07-26T10:49:32.061Z,19.20
2017-07-26T10:51:58.032Z,19.20
2017-07-26T10:54:24.001Z,19.00
2017-07-26T10:56:49.985Z,19.10
2017-07-26T10:59:15.986Z,19.30
2017-07-26T11:01:41.955Z,19.30
2017-07-26T11:04:07.904Z,19.20
2017-07-26T11:06:33.881Z,19.30
2017-07-26T11:08:59.873Z,19.20
2017-07-26T11:11:25.813Z,19.10
2017-07-26T11:13:51.749Z,19.30
2017-07-26T11:16:18.478Z,19.30
2017-07-26T11:18:44.428Z,19.30
2017-07-26T11:21:10.442Z,19.30
2017-07-26T11:23:36.436Z,19.40
2017-07-26T11:26:02.381Z,19.40
2017-07-26T11:28:28.328Z,19.30
2017-07-26T11:30:54.296Z,19.20
2017-07-26T11:33:20.240Z,19.20
2017-07-26T11:35:46.965Z,18.90
2017-07-26T11:38:13.644Z,18.90
2017-07-26T11:40:39.601Z,18.90
2017-07-26T11:43:06.321Z,18.60
2017-07-26T11:45:33.005Z,18.60
2017-07-26T11:47:59.002Z,18.50
2017-07-26T11:50:24.956Z,18.70
2017-07-26T11:52:51.653Z,18.70
2017-07-26T11:55:17.644Z,18.70
2017-07-26T11:57:43.593Z,18.60
2017-07-26T12:00:09.577Z,18.50
2017-07-26T12:02:35.590Z,18.40
2017-07-26T12:05:01.528Z,18.20
2017-07-26T12:07:28.241Z,18.00
2017-07-26T12:09:54.228Z,18.00
2017-07-26T12:12:20.187Z,18.10
2017-07-26T12:14:46.125Z,18.10
2017-07-26T12:17:12.129Z,18.20
2017-07-26T12:19:38.094Z,18.30
2017-07-26T12:22:04.076Z,18.40
2017-07-26T12:24:30.048Z,18.40
2017-07-26T12:26:55.988Z,18.40
2017-07-26T12:29:21.973Z,18.30
2017-07-26T12:31:47.917Z,18.30
2017-07-26T12:34:13.865Z,18.50
2017-07-26T12:36:39.859Z,18.40
2017-07-26T12:39:06.541Z,18.10
2017-07-26T12:41:32.517Z,18.10
2017-07-26T12:43:58.461Z,18.20
2017-07-26T12:46:24.428Z,18.30
2017-07-26T12:48:50.364Z,18.30
2017-07-26T12:51:16.340Z,18.40
2017-07-26T12:53:42.361Z,18.40
2017-07-26T12:56:08.314Z,18.30
2017-07-26T12:58:34.252Z,18.20
2017-07-26T13:01:00.346Z,18.30
2017-07-26T13:03:27.017Z,18.30
2017-07-26T13:05:52.961Z,18.30
2017-07-26T13:08:18.938Z,18.50
2017-07-26T13:10:44.909Z,18.50
2017-07-26T13:13:11.649Z,18.00
2017-07-26T13:15:37.606Z,18.00
2017-07-26T13:18:03.556Z,18.10
2017-07-26T13:20:30.282Z,18.20
2017-07-26T13:22:56.249Z,18.10
2017-07-26T13:25:22.237Z,17.90
2017-07-26T13:27:48.184Z,17.90
2017-07-26T13:30:14.877Z,17.90
2017-07-26T13:32:40.882Z,17.90
2017-07-26T13:35:06.850Z,18.00
2017-07-26T13:37:32.831Z,17.80
2017-07-26T13:39:58.818Z,17.70
2017-07-26T13:42:24.760Z,17.60
2017-07-26T13:44:51.445Z,17.80
2017-07-26T13:47:17.417Z,17.80
2017-07-26T13:49:43.385Z,17.80
2017-07-26T13:52:09.393Z,17.70
2017-07-26T13:54:35.349Z,17.70
2017-07-26T13:57:01.290Z,17.70
2017-07-26T13:59:27.285Z,17.60
2017-07-26T14:01:53.228Z,17.60
2017-07-26T14:04:19.172Z,17.60
2017-07-26T14:06:45.156Z,17.50
2017-07-26T14:09:11.848Z,17.40
2017-07-26T14:11:37.794Z,17.40
2017-07-26T14:14:04.522Z,17.30
2017-07-26T14:16:31.272Z,17.30
2017-07-26T14:18:57.218Z,17.20
2017-07-26T14:21:23.201Z,17.20
2017-07-26T14:23:49.202Z,17.10
2017-07-26T14:26:15.204Z,17.20
2017-07-26T14:28:41.193Z,17.10
2017-07-26T14:31:07.140Z,17.10
2017-07-26T14:33:33.919Z,16.90
2017-07-26T14:35:59.855Z,16.80
2017-07-26T14:38:25.805Z,16.80
2017-07-26T14:40:51.805Z,16.60
2017-07-26T14:43:17.753Z,16.50
2017-07-26T14:45:44.448Z,16.60
2017-07-26T14:48:10.450Z,16.60
2017-07-26T14:50:36.405Z,16.60
2017-07-26T14:53:02.354Z,16.70
2017-07-26T14:55:28.339Z,16.60
2017-07-26T14:57:54.305Z,16.60
2017-07-26T15:00:20.266Z,16.40
2017-07-26T15:02:46.249Z,16.40
2017-07-26T15:05:12.200Z,16.40
2017-07-26T15:07:38.184Z,16.50
2017-07-26T15:10:04.180Z,16.30
2017-07-26T15:12:30.129Z,16.30
2017-07-26T15:14:56.078Z,16.30
2017-07-26T15:17:22.832Z,16.30
2017-07-26T15:19:48.777Z,16.30
2017-07-26T15:22:14.720Z,16.30
2017-07-26T15:24:41.476Z,16.40
2017-07-26T15:27:07.481Z,16.30
2017-07-26T15:29:33.421Z,16.30
2017-07-26T15:31:59.365Z,16.20
2017-07-26T15:34:26.146Z,16.10
2017-07-26T15:36:52.088Z,16.10
2017-07-26T15:39:18.020Z,16.20
2017-07-26T15:41:44.016Z,16.10
2017-07-26T15:44:10.737Z,16.10
2017-07-26T15:46:36.680Z,16.10
2017-07-26T15:49:02.664Z,16.10
2017-07-26T15:51:29.355Z,16.00
2017-07-26T15:53:55.306Z,16.00
2017-07-26T15:56:21.269Z,16.10
2017-07-26T15:58:47.214Z,16.10
2017-07-26T16:01:13.208Z,16.10
2017-07-26T16:03:39.164Z,16.10
2017-07-26T16:06:05.133Z,16.10
2017-07-26T16:08:31.845Z,16.10
2017-07-26T16:10:57.786Z,16.10
2017-07-26T16:13:23.780Z,16.10
2017-07-26T16:15:50.457Z,16.20
2017-07-26T16:18:16.397Z,16.20
2017-07-26T16:20:42.381Z,16.20
2017-07-26T16:23:08.377Z,16.20
2017-07-26T16:25:34.349Z,16.10
2017-07-26T16:28:00.293Z,16.00
2017-07-26T16:30:26.260Z,16.00
2017-07-26T16:32:52.236Z,16.00
2017-07-26T16:35:18.172Z,16.00
2017-07-26T16:37:44.885Z,16.00
2017-07-26T16:40:11.632Z,16.00
2017-07-26T16:42:37.580Z,16.00
2017-07-26T16:45:03.518Z,15.90
2017-07-26T16:47:29.511Z,15.90
2017-07-26T16:49:55.480Z,15.90
2017-07-26T16:52:21.422Z,15.80
2017-07-26T16:54:47.397Z,15.80
2017-07-26T16:57:13.334Z,15.70
2017-07-26T16:59:39.337Z,15.70
2017-07-26T17:02:05.307Z,15.60
2017-07-26T17:04:31.258Z,15.60
2017-07-26T17:06:57.241Z,15.60
2017-07-26T17:09:23.187Z,15.60
2017-07-26T17:11:49.129Z,15.60
2017-07-26T17:14:15.849Z,15.50
2017-07-26T17:16:41.810Z,15.50
2017-07-26T17:19:07.802Z,15.50
2017-07-26T17:21:33.761Z,15.40
2017-07-26T17:23:59.741Z,15.30
2017-07-26T17:26:25.733Z,15.30
2017-07-26T17:28:51.669Z,15.30
2017-07-26T17:31:17.648Z,15.30
2017-07-26T17:33:43.632Z,15.30
2017-07-26T17:36:09.603Z,15.20
2017-07-26T17:38:35.585Z,15.20
2017-07-26T17:41:01.524Z,15.20
2017-07-26T17:43:27.468Z,15.20
2017-07-26T17:45:53.477Z,15.30
2017-07-26T17:48:19.416Z,15.20
2017-07-26T17:50:45.364Z,15.20
2017-07-26T17:53:12.453Z,15.20
2017-07-26T17:55:38.433Z,15.20
2017-07-26T17:58:04.368Z,15.20
2017-07-26T18:00:30.357Z,15.20
2017-07-26T18:02:56.297Z,15.20
2017-07-26T18:05:22.264Z,15.10
2017-07-26T18:07:48.245Z,15.10
2017-07-26T18:10:14.968Z,15.10
2017-07-26T18:12:41.667Z,15.10
2017-07-26T18:15:07.644Z,15.00
2017-07-26T18:17:33.593Z,15.10
2017-07-26T18:19:59.571Z,15.00
2017-07-26T18:22:25.658Z,15.00
2017-07-26T18:24:51.613Z,14.90
2017-07-26T18:27:17.629Z,15.00
2017-07-26T18:29:43.620Z,14.90
2017-07-26T18:32:09.610Z,14.90
2017-07-26T18:34:35.638Z,14.90
2017-07-26T18:37:01.577Z,14.90
2017-07-26T18:39:28.285Z,14.80
2017-07-26T18:41:54.230Z,14.80
2017-07-26T18:44:20.212Z,14.80
2017-07-26T18:46:46.157Z,14.80
2017-07-26T18:49:12.169Z,14.80
2017-07-26T18:51:38.145Z,14.80
2017-07-26T18:54:04.081Z,14.80
2017-07-26T18:56:30.073Z,14.80
2017-07-26T18:58:56.004Z,14.90
2017-07-26T19:01:21.949Z,14.80
2017-07-26T19:03:47.972Z,14.90
2017-07-26T19:06:13.929Z,14.90
2017-07-26T19:08:39.899Z,14.90
2017-07-26T19:11:05.889Z,14.90
2017-07-26T19:13:31.833Z,14.90
2017-07-26T19:15:58.517Z,14.90
2017-07-26T19:18:24.505Z,14.90
2017-07-26T19:20:50.444Z,14.90
2017-07-26T19:23:16.383Z,15.00
2017-07-26T19:25:43.145Z,15.00
2017-07-26T19:28:09.177Z,14.90
2017-07-26T19:30:35.156Z,14.90
2017-07-26T19:33:01.133Z,14.90
2017-07-26T19:35:27.837Z,15.00
2017-07-26T19:37:53.825Z,15.00
2017-07-26T19:40:19.770Z,15.00
2017-07-26T19:42:46.538Z,15.00
2017-07-26T19:45:12.536Z,14.90
2017-07-26T19:47:38.510Z,14.90
2017-07-26T19:50:05.196Z,15.00
2017-07-26T19:52:31.184Z,15.00
2017-07-26T19:54:57.124Z,15.00
2017-07-26T19:57:23.081Z,15.00
2017-07-26T19:59:49.125Z,15.00
2017-07-26T20:02:15.113Z,15.10
2017-07-26T20:04:41.093Z,15.00
2017-07-26T20:07:07.781Z,15.00
2017-07-26T20:09:33.781Z,15.10
2017-07-26T20:11:59.721Z,15.10
2017-07-26T20:14:25.670Z,15.10
2017-07-26T20:16:51.669Z,15.00
2017-07-26T20:19:17.605Z,15.10
2017-07-26T20:21:43.546Z,15.10
2017-07-26T20:24:09.573Z,15.10
2017-07-26T20:26:36.272Z,15.10
2017-07-26T20:29:02.242Z,15.10
2017-07-26T20:31:28.302Z,15.10
2017-07-26T20:33:54.241Z,15.20
2017-07-26T20:36:20.201Z,15.20
2017-07-26T20:38:46.172Z,15.20
2017-07-26T20:41:12.118Z,15.10
2017-07-26T20:43:38.058Z,15.20
2017-07-26T20:46:04.056Z,15.20
2017-07-26T20:48:29.990Z,15.20
2017-07-26T20:50:55.929Z,15.20
2017-07-26T20:53:21.940Z,15.20
2017-07-26T20:55:47.881Z,15.20
2017-07-26T20:58:13.836Z,15.20
2017-07-26T21:00:39.818Z,15.10
2017-07-26T21:03:06.501Z,15.30
2017-07-26T21:05:32.472Z,15.20
2017-07-26T21:07:58.449Z,15.20
2017-07-26T21:10:24.392Z,15.20
2017-07-26T21:12:50.372Z,15.20
2017-07-26T21:15:17.058Z,15.20
2017-07-26T21:17:43.053Z,15.20
2017-07-26T21:20:09.018Z,15.20
2017-07-26T21:22:35.704Z,15.30
2017-07-26T21:25:01.687Z,15.30
2017-07-26T21:27:27.677Z,15.30
2017-07-26T21:29:53.621Z,15.30
2017-07-26T21:32:19.565Z,15.30
2017-07-26T21:34:45.567Z,15.30
2017-07-26T21:37:12.425Z,15.30
2017-07-26T21:39:38.369Z,15.30
2017-07-26T21:42:04.363Z,15.30
2017-07-26T21:44:30.309Z,15.30
2017-07-26T21:46:56.285Z,15.40
2017-07-26T21:49:22.221Z,15.40
2017-07-26T21:51:48.158Z,15.40
2017-07-26T21:54:14.881Z,15.50
2017-07-26T21:56:41.569Z,15.50
2017-07-26T21:59:07.561Z,15.50
2017-07-26T22:01:33.509Z,15.50
2017-07-26T22:03:59.453Z,15.50
2017-07-26T22:06:25.452Z,15.50
2017-07-26T22:08:51.396Z,15.60
2017-07-26T22:11:17.337Z,15.60
2017-07-26T22:13:43.315Z,15.60
2017-07-26T22:16:09.317Z,15.70
2017-07-26T22:18:35.258Z,15.70
2017-07-26T22:21:01.201Z,15.70
2017-07-26T22:23:27.172Z,15.60
2017-07-26T22:25:53.156Z,15.60
2017-07-26T22:28:19.098Z,15.70
2017-07-26T22:30:45.786Z,15.80
2017-07-26T22:33:11.773Z,15.70
2017-07-26T22:35:37.746Z,15.80
2017-07-26T22:38:04.465Z,15.70
2017-07-26T22:40:30.404Z,15.70
2017-07-26T22:42:56.396Z,15.80
2017-07-26T22:45:23.076Z,15.80
2017-07-26T22:47:49.016Z,15.80
2017-07-26T22:50:15.729Z,15.90
2017-07-26T22:52:41.733Z,15.80
2017-07-26T22:55:07.673Z,15.90
2017-07-26T22:57:34.349Z,15.90
2017-07-26T23:00:00.349Z,15.90
2017-07-26T23:02:26.293Z,15.90
2017-07-26T23:04:52.240Z,15.80
2017-07-26T23:07:18.229Z,15.80
2017-07-26T23:09:44.913Z,15.90
2017-07-26T23:12:10.867Z,15.90
2017-07-26T23:14:36.856Z,15.90
2017-07-26T23:17:02.804Z,16.00
2017-07-26T23:19:28.769Z,15.90
2017-07-26T23:21:54.784Z,16.00
2017-07-26T23:24:21.464Z,16.10
2017-07-26T23:26:47.408Z,16.00
2017-07-26T23:29:13.401Z,16.00
2017-07-26T23:31:39.357Z,16.00
2017-07-26T23:34:05.335Z,16.00
2017-07-26T23:36:31.324Z,16.10
2017-07-26T23:38:57.260Z,16.00
2017-07-26T23:41:23.940Z,16.10
2017-07-26T23:43:49.916Z,16.00
2017-07-26T23:46:15.852Z,16.20
2017-07-26T23:48:41.844Z,16.20
2017-07-26T23:51:07.787Z,16.20
2017-07-26T23:53:33.728Z,16.10
2017-07-26T23:56:00.452Z,16.10
2017-07-26T23:58:26.393Z,16.10
